KSGF/SGF METAR and TAF weather

Enter ICAO airport designator
Station Type Date Time Source
KSGF METAR 2020/01/22 17:52 UTC NOAA

KSGF 221752Z 16019G27KT 10SM OVC045 00/M04 A3005 RMK AO2 PK WND 15027/1716 SLP187 60000 T00001044 10000 21022 56019


Station Type Date Time Source
KSGF Decoded METAR 2020/01/22 17:52 UTC NOAA

SPRINGFIELD-BRANSON NATIONAL, MO, United States (KSGF) 37-14N 93-23W 389M
Jan 22, 2020 - 12:52 PM EST / 2020.01.22 1752 UTC
Wind: from the SSE (160 degrees) at 22 MPH (19 KT) gusting to 31 MPH (27 KT):0
Visibility: 10 mile(s):0
Sky conditions: overcast
Temperature: 32.0 F (0.0 C)
Windchill: 19 F (-7 C):1
Dew Point: 24.1 F (-4.4 C)
Relative Humidity: 72%
Pressure (altimeter): 30.05 in. Hg (1017 hPa)
Pressure tendency: 0.06 inches (1.9 hPa) lower than three hours ago
ob: KSGF 221752Z 16019G27KT 10SM OVC045 00/M04 A3005 RMK AO2 PK WND 15027/1716 SLP187 60000 T00001044 10000 21022 56019
cycle: 18

Station Type Date Time Source
KSGF TAF 2020/01/22 18:28 UTC NOAA

TAF KSGF 221726Z 2218/2318 16017G26KT P6SM SHRA OVC045
FM222100 17018G24KT 5SM -RA OVC010
TEMPO 2301/2303 2SM -RA OVC001
FM230300 15017G25KT 4SM -RA OVC007
FM230900 16012KT 3SM -RA OVC008
FM231300 16010KT 3SM -SNRA OVC006

Example: see airport list